Time;durP1;ratioP1;P1;durP2;ratioP2;P2;SDS_P1;SDS_P2;PMS_P1;PMS_P2;Temp;Humidity;BMP_temperature;BMP_pressure;BME280_temperature;BME280_humidity;BME280_pressure;Samples;Min_cycle;Max_cycle;Signal;HPM_P1;HPM_P2
2023/08/30 00:00:40;;;;;;;7.20;5.10;;;;;;;28.90;36.38;99424.84;104057;1288;69332;-85
2023/08/30 00:03:06;;;;;;;9.20;5.30;;;;;;;28.89;36.64;99427.34;104217;1288;67749;-85
2023/08/30 00:05:38;;;;;;;6.60;5.20;;;;;;;28.89;36.33;99430.88;104099;1291;69104;-91
2023/08/30 00:08:04;;;;;;;8.00;5.10;;;;;;;28.89;36.43;99433.17;104201;1289;74481;-85
2023/08/30 00:10:29;;;;;;;8.90;5.20;;;;;;;28.88;36.48;99432.27;104287;1291;69161;-85
2023/08/30 00:12:55;;;;;;;6.80;4.50;;;;;;;28.88;36.45;99432.00;104142;1291;69164;-85
2023/08/30 00:15:20;;;;;;;7.20;5.50;;;;;;;28.88;36.47;99433.67;104081;1287;69286;-85
2023/08/30 00:17:46;;;;;;;6.80;5.10;;;;;;;28.87;36.22;99433.23;104073;1288;69276;-85
2023/08/30 00:20:11;;;;;;;9.40;5.40;;;;;;;28.87;36.43;99439.05;103876;1288;69196;-85
2023/08/30 00:22:37;;;;;;;7.30;4.80;;;;;;;28.87;36.44;99438.33;104030;1288;69324;-85
2023/08/30 00:25:03;;;;;;;6.50;5.20;;;;;;;28.87;36.35;99445.70;103950;1287;69269;-85
2023/08/30 00:27:28;;;;;;;5.60;5.00;;;;;;;28.86;36.45;99448.36;104103;1289;69274;-85
2023/08/30 00:29:54;;;;;;;8.30;5.20;;;;;;;28.86;36.48;99466.73;104019;1289;69229;-85
2023/08/30 00:32:25;;;;;;;8.20;5.30;;;;;;;28.86;36.38;99472.25;103981;1288;69109;-90
2023/08/30 00:34:53;;;;;;;8.00;5.30;;;;;;;28.86;36.45;99470.08;104086;1288;69246;-85
2023/08/30 00:37:18;;;;;;;6.10;5.00;;;;;;;28.86;36.34;99479.61;104121;1292;69226;-85
2023/08/30 00:39:44;;;;;;;5.80;4.80;;;;;;;28.85;36.41;99476.77;104303;1296;69159;-85
2023/08/30 00:42:10;;;;;;;7.40;5.00;;;;;;;28.85;36.30;99461.93;105127;1292;68038;-85
2023/08/30 00:44:35;;;;;;;6.20;5.10;;;;;;;28.85;36.44;99454.23;104371;1290;69982;-85
2023/08/30 00:47:01;;;;;;;7.20;5.20;;;;;;;28.84;36.44;99451.80;104655;1288;69142;-85
2023/08/30 00:49:28;;;;;;;6.60;5.30;;;;;;;28.85;36.46;99450.50;104730;1287;69233;-85
2023/08/30 00:51:54;;;;;;;7.10;4.90;;;;;;;28.85;36.59;99461.73;103965;1290;69232;-85
2023/08/30 00:54:19;;;;;;;7.00;4.90;;;;;;;28.85;36.55;99460.65;103966;1294;69230;-85
2023/08/30 00:56:46;;;;;;;5.30;4.60;;;;;;;28.84;36.47;99462.02;104049;1289;69297;-85
2023/08/30 01:01:53;;;;;;;7.20;5.00;;;;;;;28.83;36.51;99466.51;104185;1288;73531;-85
2023/08/30 01:04:19;;;;;;;6.70;4.90;;;;;;;28.83;36.42;99471.60;104015;1288;69163;-85
2023/08/30 01:06:44;;;;;;;5.30;4.70;;;;;;;28.83;36.53;99468.91;103908;1291;69309;-85
2023/08/30 01:09:10;;;;;;;5.50;4.80;;;;;;;28.83;36.53;99466.90;104162;1286;69245;-85
2023/08/30 01:11:40;;;;;;;6.70;4.70;;;;;;;28.83;36.65;99464.01;104234;1291;69127;-85
2023/08/30 01:16:47;;;;;;;6.80;4.80;;;;;;;28.81;36.26;99473.45;103960;1288;69172;-85
2023/08/30 01:19:34;;;;;;;5.70;5.10;;;;;;;28.81;36.35;99470.19;103903;1289;69361;-85
2023/08/30 01:22:14;;;;;;;5.70;4.80;;;;;;;28.80;36.31;99467.42;103964;1288;69207;-85
2023/08/30 01:25:12;;;;;;;6.30;4.70;;;;;;;28.80;36.36;99463.83;104007;1291;69278;-85
2023/08/30 01:27:38;;;;;;;5.90;4.70;;;;;;;28.79;36.45;99467.60;103682;1294;74541;-85
2023/08/30 01:30:05;;;;;;;7.60;5.00;;;;;;;28.78;36.42;99473.68;103734;1289;69282;-85
2023/08/30 01:32:30;;;;;;;7.30;5.70;;;;;;;28.79;36.41;99473.84;103949;1288;69151;-85
2023/08/30 01:34:56;;;;;;;7.70;5.00;;;;;;;28.78;36.51;99466.54;103938;1287;69303;-85
2023/08/30 01:37:22;;;;;;;4.90;4.40;;;;;;;28.78;36.46;99465.52;103776;1291;69272;-85
2023/08/30 01:39:47;;;;;;;7.00;5.00;;;;;;;28.78;36.62;99468.80;103686;1291;69403;-85
2023/08/30 01:42:14;;;;;;;6.20;4.90;;;;;;;28.78;36.44;99465.08;103939;1288;69232;-85
2023/08/30 01:44:41;;;;;;;5.70;5.00;;;;;;;28.77;36.33;99469.02;103632;1296;69272;-85
2023/08/30 01:47:16;;;;;;;6.10;4.80;;;;;;;28.76;36.42;99472.39;103910;1290;69201;-91
2023/08/30 01:49:42;;;;;;;7.40;5.30;;;;;;;28.77;36.41;99468.12;103921;1287;73588;-85
2023/08/30 01:52:07;;;;;;;6.70;5.10;;;;;;;28.76;36.37;99460.83;103839;1289;69200;-85
2023/08/30 01:54:33;;;;;;;7.50;5.20;;;;;;;28.76;36.36;99462.66;103814;1295;69784;-85
2023/08/30 01:56:58;;;;;;;6.50;5.10;;;;;;;28.76;36.41;99461.11;103798;1290;69216;-85
2023/08/30 01:59:24;;;;;;;6.20;4.60;;;;;;;28.75;36.42;99457.52;103990;1288;69268;-86
2023/08/30 02:01:51;;;;;;;6.20;5.10;;;;;;;28.75;36.35;99453.64;103826;1289;69125;-85
2023/08/30 02:04:16;;;;;;;6.40;4.60;;;;;;;28.75;36.44;99450.34;103832;1287;71721;-85
2023/08/30 02:06:45;;;;;;;8.50;5.00;;;;;;;28.75;36.44;99447.92;103874;1293;69299;-84
2023/08/30 02:09:34;;;;;;;7.30;5.20;;;;;;;28.74;36.61;99442.86;103724;1290;69267;-85
2023/08/30 02:12:00;;;;;;;9.40;5.50;;;;;;;28.74;36.47;99440.30;103890;1291;73631;-85
2023/08/30 02:14:26;;;;;;;7.10;4.90;;;;;;;28.74;36.50;99439.84;103993;1288;69265;-85
2023/08/30 02:16:52;;;;;;;7.30;4.80;;;;;;;28.73;36.24;99444.23;103634;1288;70248;-85
2023/08/30 02:19:20;;;;;;;9.40;4.80;;;;;;;28.74;36.52;99443.83;103819;1293;69303;-85
2023/08/30 02:21:46;;;;;;;7.80;5.00;;;;;;;28.72;36.45;99440.60;103873;1293;69225;-85
2023/08/30 02:24:11;;;;;;;5.90;4.90;;;;;;;28.73;36.61;99432.92;103885;1288;69280;-85
2023/08/30 02:26:37;;;;;;;7.20;5.20;;;;;;;28.72;36.35;99436.31;104007;1288;70788;-86
2023/08/30 02:29:05;;;;;;;6.80;5.00;;;;;;;28.72;36.59;99435.02;103927;1288;69170;-91
2023/08/30 02:31:30;;;;;;;6.90;4.90;;;;;;;28.72;36.54;99430.16;103885;1287;69755;-85
2023/08/30 02:33:56;;;;;;;7.80;5.20;;;;;;;28.72;36.43;99428.70;104007;1288;69173;-85
2023/08/30 02:36:21;;;;;;;6.40;4.90;;;;;;;28.72;36.32;99435.38;104024;1288;69160;-85
2023/08/30 02:38:47;;;;;;;5.90;5.10;;;;;;;28.71;36.47;99430.94;104005;1288;69658;-85
2023/08/30 02:41:12;;;;;;;6.30;4.80;;;;;;;28.71;36.36;99430.79;103696;1288;69276;-86
2023/08/30 02:43:38;;;;;;;7.70;5.20;;;;;;;28.70;36.34;99427.35;103792;1292;69179;-85
2023/08/30 02:46:05;;;;;;;6.20;4.70;;;;;;;28.71;36.46;99421.95;103820;1289;69196;-85
2023/08/30 02:48:33;;;;;;;7.50;5.00;;;;;;;28.70;36.44;99422.58;103885;1290;69303;-86
2023/08/30 02:50:59;;;;;;;6.20;5.00;;;;;;;28.69;36.41;99424.55;103861;1291;69249;-85
2023/08/30 02:53:25;;;;;;;6.10;5.10;;;;;;;28.70;36.42;99419.57;103884;1294;69334;-85
2023/08/30 02:56:07;;;;;;;6.30;5.00;;;;;;;28.70;36.51;99425.15;103954;1291;69234;-91
2023/08/30 02:58:32;;;;;;;6.80;5.10;;;;;;;28.69;36.42;99419.93;104057;1288;73498;-85
2023/08/30 03:00:58;;;;;;;6.90;5.10;;;;;;;28.69;36.53;99419.23;104241;1289;69261;-85
2023/08/30 03:03:23;;;;;;;12.20;5.60;;;;;;;28.69;36.59;99422.21;103974;1288;69232;-85
2023/08/30 03:05:48;;;;;;;12.80;5.80;;;;;;;28.68;36.30;99428.83;104454;1288;67441;-86
2023/08/30 03:08:14;;;;;;;10.90;5.70;;;;;;;28.63;36.23;99432.36;106619;1288;66655;-87
2023/08/30 03:10:40;;;;;;;10.30;5.80;;;;;;;28.58;36.29;99432.23;106379;1288;66946;-86
2023/08/30 03:13:05;;;;;;;7.90;5.40;;;;;;;28.52;36.18;99431.48;106524;1287;66775;-86
2023/08/30 03:15:32;;;;;;;13.50;6.00;;;;;;;28.47;36.32;99433.98;106437;1288;69141;-86
2023/08/30 03:17:58;;;;;;;12.50;5.60;;;;;;;28.45;36.33;99440.04;104459;1288;67876;-85
2023/08/30 03:20:23;;;;;;;27.10;6.60;;;;;;;28.42;36.42;99444.66;104007;1294;69293;-85
2023/08/30 03:22:58;;;;;;;17.10;6.60;;;;;;;28.41;36.41;99448.38;104015;1288;69323;-90
2023/08/30 03:25:23;;;;;;;11.30;5.80;;;;;;;28.38;36.54;99450.58;104104;1288;69597;-85
2023/08/30 03:27:49;;;;;;;19.00;6.20;;;;;;;28.35;36.59;99451.95;103883;1288;69277;-85
2023/08/30 03:30:14;;;;;;;15.10;6.20;;;;;;;28.32;36.67;99453.80;103966;1288;69198;-85
2023/08/30 03:32:40;;;;;;;9.30;6.10;;;;;;;28.28;36.71;99452.10;103984;1288;69278;-85
2023/08/30 03:35:06;;;;;;;14.50;6.20;;;;;;;28.24;36.68;99451.48;104025;1288;69296;-85
2023/08/30 03:37:31;;;;;;;13.60;6.10;;;;;;;28.20;36.80;99454.86;103979;1291;69353;-85
2023/08/30 03:39:57;;;;;;;149.50;13.40;;;;;;;28.17;36.80;99456.91;103761;1291;269998;-85
2023/08/30 03:42:22;;;;;;;55.70;8.70;;;;;;;28.14;36.89;99457.08;103843;1288;69252;-85
2023/08/30 03:44:48;;;;;;;30.00;7.90;;;;;;;28.12;37.09;99460.29;103907;1289;69396;-85
2023/08/30 03:47:13;;;;;;;17.20;6.10;;;;;;;28.09;37.26;99464.61;104107;1292;69247;-85
2023/08/30 03:49:47;;;;;;;22.90;6.80;;;;;;;28.06;37.36;99466.23;104017;1292;69286;-90
2023/08/30 03:52:13;;;;;;;27.10;7.50;;;;;;;28.03;37.42;99470.10;103987;1288;69394;-85
2023/08/30 03:54:38;;;;;;;15.80;6.50;;;;;;;28.01;37.68;99470.41;104060;1288;69196;-85
2023/08/30 03:57:04;;;;;;;21.40;7.10;;;;;;;27.98;37.59;99475.00;104040;1291;69240;-85
2023/08/30 03:59:30;;;;;;;39.30;8.10;;;;;;;27.96;37.93;99475.64;103699;1288;69224;-85
2023/08/30 04:01:55;;;;;;;22.60;7.60;;;;;;;27.93;37.95;99476.96;104027;1288;69183;-85
2023/08/30 04:04:21;;;;;;;24.40;6.40;;;;;;;27.90;38.00;99474.48;103723;1288;70322;-85
2023/08/30 04:06:46;;;;;;;15.50;6.20;;;;;;;27.88;37.94;99478.73;104013;1288;69255;-85
2023/08/30 04:09:12;;;;;;;15.20;6.90;;;;;;;27.87;38.03;99476.12;104020;1288;69267;-84
2023/08/30 04:11:37;;;;;;;14.30;6.60;;;;;;;27.86;37.81;99478.02;104043;1288;79253;-85
2023/08/30 04:14:03;;;;;;;12.80;6.10;;;;;;;27.82;37.82;99481.21;104011;1289;70537;-85
2023/08/30 04:19:02;;;;;;;10.50;5.80;;;;;;;27.66;37.80;99479.52;104319;1288;69069;-84
2023/08/30 04:21:27;;;;;;;10.70;5.80;;;;;;;27.59;37.84;99480.53;104204;1288;69227;-85
2023/08/30 04:23:53;;;;;;;12.50;5.60;;;;;;;27.54;37.76;99476.98;104167;1287;69135;-85
2023/08/30 04:26:18;;;;;;;13.30;5.90;;;;;;;27.50;37.86;99479.64;103927;1285;69212;-85
2023/08/30 04:28:43;;;;;;;12.30;5.70;;;;;;;27.47;37.88;99480.21;104293;1285;69396;-85
2023/08/30 04:31:09;;;;;;;14.30;6.00;;;;;;;27.43;37.91;99475.62;103809;1288;69208;-85
2023/08/30 04:33:34;;;;;;;12.70;5.60;;;;;;;27.39;37.94;99477.52;103926;1292;69301;-85
2023/08/30 04:36:00;;;;;;;14.40;6.40;;;;;;;27.34;37.99;99475.20;104080;1287;69192;-85
2023/08/30 04:38:26;;;;;;;14.10;5.90;;;;;;;27.30;38.10;99474.52;104239;1285;69256;-85
2023/08/30 04:40:57;;;;;;;15.30;6.00;;;;;;;27.29;38.14;99480.44;104130;1288;69200;-85
2023/08/30 04:43:26;;;;;;;9.20;5.70;;;;;;;27.28;38.22;99481.44;104145;1289;69117;-87
2023/08/30 04:46:07;;;;;;;12.90;6.30;;;;;;;27.26;38.18;99478.84;104758;1291;69045;-85
2023/08/30 04:48:32;;;;;;;22.40;6.70;;;;;;;27.23;38.26;99477.75;104509;1291;69288;-85
2023/08/30 04:51:00;;;;;;;19.70;6.50;;;;;;;27.20;38.33;99484.87;103888;1290;69241;-85
2023/08/30 04:53:25;;;;;;;19.80;6.90;;;;;;;27.16;38.33;99486.88;103801;1293;69437;-84
2023/08/30 04:55:51;;;;;;;29.90;7.30;;;;;;;27.15;38.42;99489.00;103945;1290;69252;-85
2023/08/30 04:58:16;;;;;;;20.60;7.10;;;;;;;27.13;38.71;99483.63;103848;1293;68371;-85
2023/08/30 05:00:42;;;;;;;28.10;6.70;;;;;;;27.09;38.56;99484.58;103785;1291;69209;-85
2023/08/30 05:03:07;;;;;;;17.80;6.50;;;;;;;27.07;38.66;99489.20;103645;1290;69351;-84
2023/08/30 05:05:34;;;;;;;17.40;7.30;;;;;;;27.06;38.70;99493.11;103825;1290;69328;-84
2023/08/30 05:07:59;;;;;;;17.20;6.20;;;;;;;27.09;38.80;99499.30;103820;1290;69219;-85
2023/08/30 05:10:25;;;;;;;20.40;7.10;;;;;;;27.12;38.81;99501.24;104004;1291;69132;-85
2023/08/30 05:12:51;;;;;;;25.40;7.00;;;;;;;27.14;38.82;99504.02;103856;1293;70389;-84
2023/08/30 05:15:18;;;;;;;22.10;7.00;;;;;;;27.17;38.83;99501.55;103868;1293;69083;-84
2023/08/30 05:17:43;;;;;;;26.80;6.90;;;;;;;27.18;38.66;99503.41;104078;1290;69164;-85
2023/08/30 05:20:09;;;;;;;27.50;7.20;;;;;;;27.19;38.95;99505.44;105537;1291;69267;-86
2023/08/30 05:22:35;;;;;;;28.70;7.60;;;;;;;27.19;38.87;99512.09;106399;1289;66910;-87
2023/08/30 05:25:01;;;;;;;38.60;7.90;;;;;;;27.21;38.89;99522.60;106235;1291;66979;-86
2023/08/30 05:27:27;;;;;;;43.60;9.30;;;;;;;27.24;38.95;99523.98;106385;1290;67197;-86
2023/08/30 05:29:52;;;;;;;71.70;11.40;;;;;;;27.27;38.99;99531.54;106283;1289;67242;-86
2023/08/30 05:32:18;;;;;;;31.40;8.20;;;;;;;27.29;39.00;99528.42;106117;1290;66738;-86
2023/08/30 05:34:44;;;;;;;34.30;8.10;;;;;;;27.30;39.11;99536.48;106334;1289;66768;-86
2023/08/30 05:39:45;;;;;;;22.20;7.20;;;;;;;27.31;39.06;99534.36;106675;1285;66975;-85
2023/08/30 05:42:10;;;;;;;17.30;6.70;;;;;;;27.31;39.03;99538.97;106685;1288;67400;-86
2023/08/30 05:44:35;;;;;;;16.50;6.50;;;;;;;27.33;39.01;99539.07;104322;1285;69364;-85
2023/08/30 05:47:01;;;;;;;18.40;7.10;;;;;;;27.32;39.03;99539.77;104522;1285;69285;-85
2023/08/30 05:49:27;;;;;;;22.00;6.50;;;;;;;27.32;38.90;99538.02;104567;1289;69361;-86
2023/08/30 05:51:52;;;;;;;13.20;6.40;;;;;;;27.31;39.07;99538.41;104480;1287;69302;-85
2023/08/30 05:54:18;;;;;;;16.70;6.90;;;;;;;27.33;39.06;99540.22;104475;1288;69276;-85
2023/08/30 05:56:43;;;;;;;16.60;7.00;;;;;;;27.35;39.12;99546.48;104328;1289;69194;-85
2023/08/30 05:59:09;;;;;;;16.20;6.80;;;;;;;27.35;39.04;99552.91;104330;1288;69147;-85
2023/08/30 06:01:35;;;;;;;21.50;7.80;;;;;;;27.35;38.89;99560.76;104258;1289;69276;-86
2023/08/30 06:04:01;;;;;;;19.90;7.30;;;;;;;27.37;39.10;99566.27;104407;1288;69097;-85
2023/08/30 06:06:27;;;;;;;16.10;7.20;;;;;;;27.37;39.17;99573.66;104271;1291;69350;-85
2023/08/30 06:08:52;;;;;;;17.20;7.70;;;;;;;27.36;39.14;99576.28;104219;1292;69220;-85
2023/08/30 06:11:18;;;;;;;15.70;6.90;;;;;;;27.36;39.30;99576.57;104444;1285;69196;-85
2023/08/30 06:13:44;;;;;;;18.30;7.00;;;;;;;27.37;39.25;99573.52;104307;1286;67699;-85
2023/08/30 06:16:18;;;;;;;18.90;8.00;;;;;;;27.38;39.28;99577.14;104391;1286;69279;-90
2023/08/30 06:18:43;;;;;;;22.30;7.10;;;;;;;27.37;39.22;99577.34;104421;1286;69137;-85
2023/08/30 06:21:09;;;;;;;19.80;7.90;;;;;;;27.36;39.40;99575.19;104359;1291;69285;-85
2023/08/30 06:23:37;;;;;;;19.50;8.60;;;;;;;27.36;39.39;99578.71;104514;1286;69250;-85
2023/08/30 06:26:03;;;;;;;28.90;16.50;;;;;;;27.37;39.55;99581.77;104453;1286;70835;-85
2023/08/30 06:28:28;;;;;;;20.10;10.30;;;;;;;27.38;39.48;99581.76;105188;1287;69201;-85
2023/08/30 06:30:54;;;;;;;16.10;9.10;;;;;;;27.39;39.63;99583.69;104526;1286;69212;-85
2023/08/30 06:33:19;;;;;;;17.80;8.50;;;;;;;27.40;39.46;99580.88;104361;1291;69247;-85
2023/08/30 06:35:47;;;;;;;16.10;7.40;;;;;;;27.42;39.28;99582.49;104202;1286;68080;-85
2023/08/30 06:38:13;;;;;;;18.60;7.20;;;;;;;27.44;39.32;99587.78;103999;1292;75023;-85
2023/08/30 06:40:44;;;;;;;50.60;9.10;;;;;;;27.47;39.38;99587.20;104273;1288;69195;-85
2023/08/30 06:43:10;;;;;;;33.40;7.80;;;;;;;27.50;39.29;99582.27;104313;1287;69088;-91
2023/08/30 06:45:35;;;;;;;21.60;7.60;;;;;;;27.52;39.37;99581.30;104288;1288;69081;-85
2023/08/30 06:48:01;;;;;;;28.00;8.00;;;;;;;27.54;39.39;99587.35;104090;1288;69238;-85
2023/08/30 06:50:27;;;;;;;61.30;39.10;;;;;;;27.55;39.42;99586.86;104745;1286;69215;-85
2023/08/30 06:52:52;;;;;;;31.20;16.30;;;;;;;27.56;39.58;99589.13;104898;1288;69202;-85
2023/08/30 06:55:18;;;;;;;26.40;15.40;;;;;;;27.60;39.64;99583.30;104821;1287;69071;-86
2023/08/30 06:57:47;;;;;;;33.10;21.40;;;;;;;27.61;39.57;99582.82;105158;1288;70764;-85
2023/08/30 07:00:14;;;;;;;26.60;10.80;;;;;;;27.62;39.59;99580.63;104322;1287;73570;-85
2023/08/30 07:02:39;;;;;;;21.20;9.90;;;;;;;27.63;39.62;99582.70;104393;1286;69125;-85
2023/08/30 07:05:06;;;;;;;17.60;8.30;;;;;;;27.64;39.64;99585.34;104504;1288;69263;-85
2023/08/30 07:07:32;;;;;;;20.10;8.00;;;;;;;27.65;39.67;99591.81;104353;1287;69197;-85
2023/08/30 07:10:09;;;;;;;23.90;8.20;;;;;;;27.66;39.66;99592.73;104271;1291;71549;-91
2023/08/30 07:12:35;;;;;;;14.60;7.00;;;;;;;27.64;39.78;99587.05;104561;1288;74506;-85
2023/08/30 07:15:01;;;;;;;19.70;7.30;;;;;;;27.64;39.84;99587.58;104449;1288;69243;-85
2023/08/30 07:17:26;;;;;;;14.90;6.70;;;;;;;27.64;39.86;99588.56;104121;1290;69339;-85
2023/08/30 07:19:52;;;;;;;20.30;8.10;;;;;;;27.65;39.76;99587.38;104394;1287;69269;-85
2023/08/30 07:22:17;;;;;;;14.30;7.30;;;;;;;27.66;39.80;99588.62;104344;1289;69260;-86
2023/08/30 07:24:44;;;;;;;27.30;8.40;;;;;;;27.68;39.66;99584.36;103969;1290;69208;-85
2023/08/30 07:27:11;;;;;;;33.00;16.50;;;;;;;27.70;39.83;99582.98;104262;1288;69160;-86
2023/08/30 07:29:36;;;;;;;24.30;10.90;;;;;;;27.71;39.90;99582.67;104020;1289;69160;-85
2023/08/30 07:32:02;;;;;;;18.80;8.40;;;;;;;27.73;39.85;99583.55;104253;1286;69221;-85
2023/08/30 07:34:27;;;;;;;20.40;8.00;;;;;;;27.73;39.90;99582.80;104238;1289;69334;-85
2023/08/30 07:37:02;;;;;;;23.40;8.20;;;;;;;27.72;39.94;99586.89;104264;1288;69262;-91
2023/08/30 07:39:28;;;;;;;25.00;8.40;;;;;;;27.73;39.97;99588.66;104282;1286;69759;-85
2023/08/30 07:41:53;;;;;;;17.40;7.40;;;;;;;27.74;39.87;99587.19;104455;1291;69257;-85
2023/08/30 07:44:20;;;;;;;17.10;7.30;;;;;;;27.75;40.01;99590.52;104435;1285;69181;-85
2023/08/30 07:46:46;;;;;;;22.30;9.10;;;;;;;27.75;39.94;99590.81;104329;1285;69141;-85
2023/08/30 07:49:12;;;;;;;34.30;28.00;;;;;;;27.76;39.83;99592.86;104208;1285;69237;-86
2023/08/30 07:51:37;;;;;;;18.60;12.20;;;;;;;27.76;39.87;99590.84;104527;1286;67894;-85
2023/08/30 07:54:03;;;;;;;29.10;10.00;;;;;;;27.76;39.88;99589.90;104636;1286;69165;-85
2023/08/30 07:56:29;;;;;;;38.50;9.40;;;;;;;27.77;39.90;99590.23;104720;1285;69132;-85
2023/08/30 07:58:54;;;;;;;43.50;9.90;;;;;;;27.78;39.93;99590.76;104511;1289;67694;-85
2023/08/30 08:01:20;;;;;;;36.50;9.00;;;;;;;27.81;39.96;99591.52;104381;1291;67219;-86
2023/08/30 08:03:54;;;;;;;24.80;8.30;;;;;;;27.82;39.94;99588.94;104306;1291;69286;-91
2023/08/30 08:06:19;;;;;;;16.90;8.10;;;;;;;27.83;39.99;99586.16;104947;1286;73623;-86
2023/08/30 08:08:45;;;;;;;19.30;7.90;;;;;;;27.84;40.10;99580.08;104413;1286;69297;-85
2023/08/30 08:11:10;;;;;;;20.00;7.80;;;;;;;27.86;40.07;99581.35;104662;1287;69725;-85
2023/08/30 08:13:37;;;;;;;14.00;7.60;;;;;;;27.88;39.98;99580.67;104498;1287;69250;-86
2023/08/30 08:16:02;;;;;;;22.30;7.70;;;;;;;27.89;39.91;99581.03;104665;1286;69311;-85
2023/08/30 08:18:28;;;;;;;20.60;8.40;;;;;;;27.90;39.87;99574.69;104419;1285;69663;-85
2023/08/30 08:20:53;;;;;;;17.20;8.40;;;;;;;27.91;39.98;99578.33;104428;1287;69173;-85
2023/08/30 08:23:21;;;;;;;15.90;8.90;;;;;;;27.92;40.09;99575.13;104366;1287;69180;-85
2023/08/30 08:25:47;;;;;;;54.90;45.70;;;;;;;27.95;40.21;99575.52;104400;1285;69518;-87
2023/08/30 08:28:12;;;;;;;23.10;18.30;;;;;;;27.97;40.17;99573.29;104386;1285;69845;-85
2023/08/30 08:30:50;;;;;;;19.50;13.10;;;;;;;28.00;40.15;99569.55;104349;1285;69262;-90
2023/08/30 08:33:18;;;;;;;19.30;11.90;;;;;;;28.02;39.99;99565.55;104099;1294;68028;-85
2023/08/30 08:35:44;;;;;;;13.50;10.40;;;;;;;28.03;40.05;99561.44;103901;1288;69435;-85
2023/08/30 08:38:10;;;;;;;15.90;9.30;;;;;;;28.06;40.17;99561.48;103956;1291;69125;-85
2023/08/30 08:40:39;;;;;;;19.20;9.30;;;;;;;28.08;40.22;99561.65;104124;1289;69120;-85
2023/08/30 08:43:05;;;;;;;14.90;8.80;;;;;;;28.09;40.24;99560.20;104119;1289;69139;-85
2023/08/30 08:48:05;;;;;;;13.60;8.20;;;;;;;28.12;39.97;99566.88;104610;1288;69126;-86
2023/08/30 08:50:34;;;;;;;16.00;8.10;;;;;;;28.13;39.91;99567.55;104411;1285;69236;-85
2023/08/30 08:53:00;;;;;;;12.10;7.90;;;;;;;28.15;39.73;99565.14;104378;1286;73571;-85
2023/08/30 08:55:27;;;;;;;13.00;7.50;;;;;;;28.17;39.49;99566.13;104409;1285;69125;-85
2023/08/30 08:57:53;;;;;;;12.70;7.90;;;;;;;28.19;39.41;99571.55;104328;1288;71268;-85
2023/08/30 09:00:19;;;;;;;15.70;7.90;;;;;;;28.20;39.30;99568.23;104263;1286;69230;-84
2023/08/30 09:02:46;;;;;;;14.70;9.10;;;;;;;28.21;39.20;99562.34;104409;1289;69886;-85
2023/08/30 09:05:11;;;;;;;14.90;7.70;;;;;;;28.22;39.13;99563.55;104168;1291;70551;-85
2023/08/30 09:07:37;;;;;;;15.50;8.40;;;;;;;28.24;39.18;99563.08;104383;1286;67265;-84
2023/08/30 09:10:03;;;;;;;15.30;8.90;;;;;;;28.24;39.18;99561.81;104281;1291;69310;-85
2023/08/30 09:15:09;;;;;;;21.00;13.60;;;;;;;28.25;39.07;99547.24;104189;1288;73385;-85
2023/08/30 09:17:36;;;;;;;29.30;20.50;;;;;;;28.25;39.20;99541.16;104178;1288;69182;-84
2023/08/30 09:20:09;;;;;;;24.30;14.30;;;;;;;28.26;39.31;99542.80;104185;1292;69171;-85
2023/08/30 09:22:41;;;;;;;16.00;10.60;;;;;;;28.27;39.26;99537.80;104242;1289;69352;-84
2023/08/30 09:25:11;;;;;;;15.00;8.90;;;;;;;28.29;38.94;99534.26;104247;1288;69219;-85
2023/08/30 09:27:38;;;;;;;15.50;8.80;;;;;;;28.31;38.96;99533.83;104943;1288;73428;-85
2023/08/30 09:30:10;;;;;;;11.50;8.10;;;;;;;28.33;38.72;99533.98;104664;1288;67071;-86
2023/08/30 09:32:42;;;;;;;12.80;8.00;;;;;;;28.34;38.72;99533.36;104213;1294;69407;-86
2023/08/30 09:35:08;;;;;;;16.40;8.00;;;;;;;28.34;38.76;99534.23;104176;1288;69083;-86
2023/08/30 09:37:34;;;;;;;14.90;8.10;;;;;;;28.35;38.82;99532.86;104945;1288;70007;-85
2023/08/30 09:40:03;;;;;;;16.70;7.70;;;;;;;28.37;38.69;99534.40;104721;1289;70467;-86
2023/08/30 09:42:28;;;;;;;13.30;7.70;;;;;;;28.38;38.73;99528.27;104072;1292;69258;-87
2023/08/30 09:44:54;;;;;;;13.50;7.80;;;;;;;28.40;38.69;99524.16;103931;1289;69318;-86
2023/08/30 09:47:19;;;;;;;12.50;7.90;;;;;;;28.42;38.72;99526.32;104022;1288;69216;-85
2023/08/30 09:49:45;;;;;;;9.40;7.20;;;;;;;28.43;38.65;99516.25;104213;1288;69193;-85
2023/08/30 09:52:12;;;;;;;15.50;8.30;;;;;;;28.44;38.66;99515.21;104292;1288;69165;-85
2023/08/30 09:54:38;;;;;;;15.70;8.70;;;;;;;28.44;38.58;99516.95;104819;1287;69077;-85
2023/08/30 09:57:04;;;;;;;22.00;12.50;;;;;;;28.47;38.60;99521.86;104417;1288;69142;-85
2023/08/30 09:59:30;;;;;;;22.20;14.20;;;;;;;28.48;38.63;99520.56;104085;1289;68064;-85
2023/08/30 10:01:55;;;;;;;16.80;12.40;;;;;;;28.49;38.57;99516.22;103956;1288;69249;-84
2023/08/30 10:04:21;;;;;;;20.90;12.70;;;;;;;28.50;38.68;99521.37;103949;1294;69317;-85
2023/08/30 10:06:47;;;;;;;20.10;14.00;;;;;;;28.50;38.61;99512.86;104199;1288;69204;-85
2023/08/30 10:11:46;;;;;;;12.90;10.60;;;;;;;28.51;38.34;99511.26;104355;1286;72836;-84
2023/08/30 10:14:12;;;;;;;20.00;11.40;;;;;;;28.53;38.38;99511.06;104213;1289;69106;-87
2023/08/30 10:16:44;;;;;;;14.30;9.70;;;;;;;28.55;38.31;99509.05;103865;1288;69280;-86
2023/08/30 10:19:17;;;;;;;14.40;7.50;;;;;;;28.55;38.30;99508.70;104239;1288;70192;-86
2023/08/30 10:21:47;;;;;;;11.60;7.80;;;;;;;28.56;38.36;99507.92;104031;1288;69151;-87
2023/08/30 10:24:25;;;;;;;13.00;7.40;;;;;;;28.57;38.30;99501.02;104200;1291;73457;-92
2023/08/30 10:26:51;;;;;;;15.50;7.50;;;;;;;28.58;38.18;99490.90;104043;1291;69284;-86
2023/08/30 10:29:16;;;;;;;15.30;7.70;;;;;;;28.60;38.47;99487.46;104536;1288;69244;-87
2023/08/30 10:31:42;;;;;;;14.90;7.70;;;;;;;28.62;38.35;99488.88;104251;1287;69215;-84
2023/08/30 10:34:16;;;;;;;9.60;7.30;;;;;;;28.63;38.46;99488.60;104014;1288;69262;-84
2023/08/30 10:36:41;;;;;;;11.90;7.20;;;;;;;28.66;38.39;99480.35;104214;1288;73551;-86
2023/08/30 10:39:27;;;;;;;12.80;7.20;;;;;;;28.67;38.43;99487.28;104203;1287;69290;-91
2023/08/30 10:41:57;;;;;;;13.50;7.00;;;;;;;28.69;38.51;99485.25;104127;1287;69817;-86
2023/08/30 10:44:23;;;;;;;15.90;8.30;;;;;;;28.70;38.35;99482.84;104274;1287;69164;-86
2023/08/30 10:46:52;;;;;;;18.10;7.40;;;;;;;28.72;38.37;99482.79;104204;1291;69146;-86
2023/08/30 10:49:18;;;;;;;13.80;7.90;;;;;;;28.73;38.44;99478.90;104094;1288;73518;-84
2023/08/30 10:51:47;;;;;;;12.90;7.50;;;;;;;28.74;38.31;99479.27;104324;1287;69884;-86
2023/08/30 10:54:18;;;;;;;11.10;7.10;;;;;;;28.75;38.17;99480.10;104197;1287;68373;-92
2023/08/30 10:56:58;;;;;;;10.00;6.60;;;;;;;28.76;38.20;99479.45;104227;1288;69086;-86
2023/08/30 10:59:24;;;;;;;11.80;7.10;;;;;;;28.77;38.23;99484.67;104047;1288;69825;-86
2023/08/30 11:01:51;;;;;;;21.10;7.10;;;;;;;28.79;38.23;99487.83;104181;1291;69174;-86
2023/08/30 11:04:17;;;;;;;18.50;7.20;;;;;;;28.81;38.25;99489.13;104179;1288;69218;-86
2023/08/30 11:06:46;;;;;;;18.60;7.60;;;;;;;28.84;38.09;99485.48;104207;1291;69263;-86
2023/08/30 11:09:14;;;;;;;15.00;7.10;;;;;;;28.86;37.89;99480.23;104078;1293;69213;-92
2023/08/30 11:11:39;;;;;;;12.80;7.90;;;;;;;28.88;37.97;99475.52;104281;1291;69122;-86
2023/08/30 11:14:08;;;;;;;12.90;7.50;;;;;;;28.88;37.90;99468.75;104254;1288;69330;-86
2023/08/30 11:16:36;;;;;;;13.40;7.60;;;;;;;28.89;37.84;99466.23;103912;1288;69238;-85
2023/08/30 11:19:06;;;;;;;10.50;7.60;;;;;;;28.90;37.80;99459.76;103933;1288;69279;-86
2023/08/30 11:21:32;;;;;;;12.90;8.40;;;;;;;28.90;37.74;99456.36;104228;1291;69113;-86
2023/08/30 11:26:32;;;;;;;11.60;8.60;;;;;;;28.92;37.63;99452.84;104388;1288;72808;-85
2023/08/30 11:28:57;;;;;;;12.80;7.40;;;;;;;28.94;37.64;99451.65;104182;1288;69382;-86
2023/08/30 11:31:29;;;;;;;9.40;7.90;;;;;;;28.95;37.54;99450.45;104129;1293;69226;-85
2023/08/30 11:33:56;;;;;;;18.50;7.90;;;;;;;28.96;37.43;99447.56;104169;1288;69389;-85
2023/08/30 11:36:31;;;;;;;9.90;7.30;;;;;;;28.95;37.57;99441.52;104076;1291;67125;-86
2023/08/30 11:41:31;;;;;;;14.90;6.80;;;;;;;28.95;37.39;99432.23;104427;1285;69116;-86